createdAt,value
2023-04-16T00:01:50.767Z,3.22
2023-04-16T00:04:17.667Z,3.35
2023-04-16T00:06:44.412Z,4.55
2023-04-16T00:09:11.454Z,3.63
2023-04-16T00:11:38.350Z,3.42
2023-04-16T00:14:05.190Z,2.80
2023-04-16T00:16:31.967Z,2.70
2023-04-16T00:18:58.733Z,2.53
2023-04-16T00:21:26.382Z,2.65
2023-04-16T00:23:53.124Z,2.90
2023-04-16T00:26:19.830Z,2.65
2023-04-16T00:28:46.815Z,2.80
2023-04-16T00:31:13.524Z,2.70
2023-04-16T00:33:40.366Z,3.13
2023-04-16T00:36:07.406Z,3.83
2023-04-16T00:38:34.184Z,3.25
2023-04-16T00:41:00.958Z,4.43
2023-04-16T00:43:27.789Z,3.53
2023-04-16T00:45:57.336Z,3.17
2023-04-16T00:48:24.721Z,3.20
2023-04-16T00:50:51.477Z,3.83
2023-04-16T00:53:18.289Z,3.85
2023-04-16T00:55:45.893Z,3.63
2023-04-16T00:58:12.822Z,3.00
2023-04-16T01:00:39.601Z,3.22
2023-04-16T01:03:06.469Z,3.33
2023-04-16T01:05:33.316Z,2.70
2023-04-16T01:08:03.198Z,3.03
2023-04-16T01:10:29.992Z,3.00
2023-04-16T01:12:56.648Z,2.72
2023-04-16T01:15:23.386Z,2.55
2023-04-16T01:17:50.812Z,3.20
2023-04-16T01:20:17.530Z,2.88
2023-04-16T01:22:44.221Z,2.97
2023-04-16T01:25:14.542Z,2.50
2023-04-16T01:27:41.376Z,2.33
2023-04-16T01:30:08.625Z,2.20
2023-04-16T01:32:48.934Z,2.15
2023-04-16T01:35:16.435Z,2.33
2023-04-16T01:37:44.390Z,2.10
2023-04-16T01:40:11.401Z,2.15
2023-04-16T01:42:38.554Z,2.28
2023-04-16T01:45:06.161Z,1.98
2023-04-16T01:47:32.951Z,2.30
2023-04-16T01:50:00.976Z,1.88
2023-04-16T01:52:27.754Z,1.65
2023-04-16T01:54:54.472Z,1.80
2023-04-16T01:57:21.208Z,1.60
2023-04-16T02:00:27.697Z,1.77
2023-04-16T02:02:54.986Z,1.58
2023-04-16T02:05:26.475Z,1.40
2023-04-16T02:07:53.254Z,1.50
2023-04-16T02:10:19.971Z,1.75
2023-04-16T02:12:47.679Z,1.48
2023-04-16T02:15:16.320Z,1.60
2023-04-16T02:17:43.130Z,1.40
2023-04-16T02:20:11.179Z,1.35
2023-04-16T02:22:48.037Z,1.50
2023-04-16T02:25:18.241Z,1.30
2023-04-16T02:27:44.975Z,1.55
2023-04-16T02:30:24.264Z,1.10
2023-04-16T02:32:52.169Z,0.90
2023-04-16T02:35:19.796Z,0.90
2023-04-16T02:37:46.532Z,1.95
2023-04-16T02:40:13.280Z,0.90
2023-04-16T02:42:39.968Z,0.80
2023-04-16T02:45:08.086Z,1.00
2023-04-16T02:47:34.829Z,0.70
2023-04-16T02:50:01.565Z,0.70
2023-04-16T02:52:28.262Z,0.60
2023-04-16T02:54:55.029Z,0.70
2023-04-16T02:57:21.815Z,0.70
2023-04-16T02:59:48.567Z,0.50
2023-04-16T03:02:16.195Z,0.60
2023-04-16T03:04:43.124Z,0.50
2023-04-16T03:07:09.951Z,0.50
2023-04-16T03:09:36.982Z,0.50
2023-04-16T03:12:04.033Z,0.77
2023-04-16T03:14:31.190Z,0.52
2023-04-16T03:16:58.360Z,0.55
2023-04-16T03:19:25.678Z,0.40
2023-04-16T03:21:52.438Z,0.40
2023-04-16T03:24:19.354Z,0.50
2023-04-16T03:26:48.881Z,0.50
2023-04-16T03:29:15.980Z,0.40
2023-04-16T03:31:43.149Z,0.50
2023-04-16T03:34:09.899Z,0.50
2023-04-16T03:36:36.651Z,0.40
2023-04-16T03:39:03.509Z,0.30
2023-04-16T03:41:30.424Z,0.30
2023-04-16T03:43:57.960Z,0.30
2023-04-16T03:46:24.700Z,0.20
2023-04-16T03:48:51.687Z,0.20
2023-04-16T03:51:18.764Z,0.30
2023-04-16T03:53:45.939Z,0.20
2023-04-16T03:56:14.086Z,0.30
2023-04-16T03:58:40.831Z,0.30
2023-04-16T04:01:08.312Z,0.20
2023-04-16T04:03:35.502Z,0.20
2023-04-16T04:06:07.658Z,0.20
2023-04-16T04:08:34.356Z,0.20
2023-04-16T04:11:02.982Z,0.20
2023-04-16T04:13:30.830Z,0.20
2023-04-16T04:15:58.399Z,0.30
2023-04-16T04:18:26.937Z,0.30
2023-04-16T04:20:53.830Z,0.30
2023-04-16T04:23:24.595Z,0.25
2023-04-16T04:25:51.502Z,0.20
2023-04-16T04:28:18.424Z,0.25
2023-04-16T04:30:45.250Z,0.32
2023-04-16T04:33:12.526Z,0.30
2023-04-16T04:35:39.290Z,0.75
2023-04-16T04:38:06.264Z,0.20
2023-04-16T04:40:33.548Z,0.30
2023-04-16T04:43:00.912Z,0.38
2023-04-16T04:45:29.582Z,0.30
2023-04-16T04:47:58.266Z,0.50
2023-04-16T04:50:26.356Z,0.50
2023-04-16T04:52:53.155Z,0.50
2023-04-16T04:55:20.000Z,0.30
2023-04-16T04:57:46.913Z,0.38
2023-04-16T05:00:13.787Z,0.85
2023-04-16T05:02:54.890Z,0.47
2023-04-16T05:05:21.799Z,0.50
2023-04-16T05:07:48.521Z,0.40
2023-04-16T05:10:15.658Z,0.57
2023-04-16T05:12:42.328Z,0.40
2023-04-16T05:15:09.471Z,0.40
2023-04-16T05:17:36.318Z,0.30
2023-04-16T05:20:03.152Z,0.30
2023-04-16T05:22:30.875Z,0.32
2023-04-16T05:24:59.602Z,0.30
2023-04-16T05:27:26.352Z,0.30
2023-04-16T05:29:53.175Z,7.65
2023-04-16T05:32:19.938Z,0.38
2023-04-16T05:34:46.608Z,0.30
2023-04-16T05:37:13.269Z,6.35
2023-04-16T05:39:40.024Z,0.25
2023-04-16T05:42:06.710Z,2.03
2023-04-16T05:44:33.902Z,0.30
2023-04-16T05:47:00.604Z,0.52
2023-04-16T05:49:27.280Z,0.40
2023-04-16T05:51:53.979Z,0.98
2023-04-16T05:54:20.644Z,1.10
2023-04-16T05:56:47.309Z,0.40
2023-04-16T05:59:14.044Z,0.20
2023-04-16T06:01:41.407Z,0.40
2023-04-16T06:04:08.195Z,0.30
2023-04-16T06:06:34.986Z,1.35
2023-04-16T06:09:01.660Z,0.47
2023-04-16T06:11:30.110Z,0.75
2023-04-16T06:13:56.840Z,0.30
2023-04-16T06:16:23.535Z,1.65
2023-04-16T06:18:50.199Z,0.68
2023-04-16T06:21:16.905Z,0.77
2023-04-16T06:23:43.554Z,0.30
2023-04-16T06:26:11.344Z,0.80
2023-04-16T06:28:38.033Z,0.28
2023-04-16T06:31:04.954Z,0.90
2023-04-16T06:33:31.728Z,23.98
2023-04-16T06:35:58.379Z,0.40
2023-04-16T06:38:25.048Z,0.28
2023-04-16T06:40:51.844Z,0.13
2023-04-16T06:43:18.569Z,0.20
2023-04-16T06:45:45.329Z,1.60
2023-04-16T06:48:12.005Z,0.20
2023-04-16T06:50:38.807Z,0.70
2023-04-16T06:53:05.613Z,0.98
2023-04-16T06:55:32.330Z,1.75
2023-04-16T06:57:59.126Z,1.85
2023-04-16T07:00:26.051Z,1.30
2023-04-16T07:02:53.109Z,0.40
2023-04-16T07:05:20.828Z,0.40
2023-04-16T07:07:47.581Z,0.63
2023-04-16T07:10:14.450Z,37.92
2023-04-16T07:12:41.173Z,0.75
2023-04-16T07:15:08.370Z,0.45
2023-04-16T07:17:35.173Z,0.35
2023-04-16T07:20:01.855Z,0.40
2023-04-16T07:22:28.578Z,1.23
2023-04-16T07:24:55.552Z,0.40
2023-04-16T07:27:22.309Z,0.40
2023-04-16T07:29:50.352Z,0.57
2023-04-16T07:32:17.221Z,1.55
2023-04-16T07:34:43.943Z,1.35
2023-04-16T07:37:10.781Z,0.73
2023-04-16T07:39:37.487Z,0.70
2023-04-16T07:42:04.216Z,1.13
2023-04-16T07:44:31.047Z,2.90
2023-04-16T07:46:57.940Z,0.80
2023-04-16T07:49:24.863Z,0.73
2023-04-16T07:51:51.594Z,0.70
2023-04-16T07:54:18.283Z,0.30
2023-04-16T07:56:45.055Z,0.32
2023-04-16T08:01:41.580Z,0.60
2023-04-16T08:04:08.675Z,2.55
2023-04-16T08:06:35.481Z,4.63
2023-04-16T08:09:02.176Z,0.63
2023-04-16T08:11:28.957Z,0.47
2023-04-16T08:13:55.665Z,1.40
2023-04-16T08:16:22.631Z,0.30
2023-04-16T08:18:49.584Z,1.48
2023-04-16T08:21:16.347Z,2.17
2023-04-16T08:23:43.105Z,1.63
2023-04-16T08:26:09.762Z,0.40
2023-04-16T08:28:36.447Z,0.40
2023-04-16T08:31:03.245Z,2.05
2023-04-16T08:33:29.990Z,2.72
2023-04-16T08:35:56.635Z,2.63
2023-04-16T08:38:23.296Z,6.88
2023-04-16T08:40:50.531Z,0.40
2023-04-16T08:43:19.002Z,1.38
2023-04-16T08:45:47.713Z,1.10
2023-04-16T08:48:15.590Z,0.70
2023-04-16T08:50:43.450Z,1.35
2023-04-16T08:53:15.544Z,0.75
2023-04-16T08:55:49.409Z,1.17
2023-04-16T08:58:19.748Z,0.90
2023-04-16T09:00:47.706Z,0.80
2023-04-16T09:03:14.744Z,0.52
2023-04-16T09:05:42.603Z,1.10
2023-04-16T09:08:09.523Z,0.45
2023-04-16T09:10:36.628Z,1.30
2023-04-16T09:13:03.401Z,0.80
2023-04-16T09:15:30.515Z,0.80
2023-04-16T09:17:57.590Z,0.57
2023-04-16T09:20:24.598Z,1.30
2023-04-16T09:22:51.312Z,0.85
2023-04-16T09:25:20.762Z,0.50
2023-04-16T09:27:50.445Z,0.80
2023-04-16T09:30:27.560Z,1.48
2023-04-16T09:33:16.435Z,0.88
2023-04-16T09:35:51.227Z,0.77
2023-04-16T09:38:18.983Z,3.53
2023-04-16T09:40:47.461Z,1.10
2023-04-16T09:43:16.390Z,0.50
2023-04-16T09:45:53.318Z,0.80
2023-04-16T09:48:33.494Z,1.92
2023-04-16T09:51:01.312Z,0.80
2023-04-16T09:53:30.106Z,0.70
2023-04-16T09:56:05.710Z,0.40
2023-04-16T09:58:33.124Z,1.08
2023-04-16T10:01:03.522Z,1.02
2023-04-16T10:03:31.933Z,0.93
2023-04-16T10:06:19.942Z,0.52
2023-04-16T10:08:51.481Z,0.80
2023-04-16T10:11:19.308Z,0.40
2023-04-16T10:13:46.330Z,1.10
2023-04-16T10:16:13.408Z,2.08
2023-04-16T10:18:43.185Z,0.32
2023-04-16T10:21:13.087Z,0.57
2023-04-16T10:23:40.532Z,1.25
2023-04-16T10:26:07.473Z,0.40
2023-04-16T10:28:35.692Z,1.08
2023-04-16T10:31:04.482Z,0.60
2023-04-16T10:33:40.496Z,0.75
2023-04-16T10:36:22.599Z,0.60
2023-04-16T10:38:58.353Z,0.52
2023-04-16T10:41:26.748Z,546.30
2023-04-16T10:43:53.924Z,397.60
2023-04-16T10:46:31.456Z,530.40
2023-04-16T10:49:03.487Z,548.60
2023-04-16T10:51:31.372Z,553.80
2023-04-16T10:54:08.557Z,556.92
2023-04-16T10:56:36.554Z,556.55
2023-04-16T10:59:11.074Z,525.78
2023-04-16T11:01:44.751Z,553.88
2023-04-16T11:04:21.141Z,529.90
2023-04-16T11:07:19.355Z,526.78
2023-04-16T11:10:06.028Z,518.53
2023-04-16T11:12:42.681Z,520.47
2023-04-16T11:15:15.029Z,523.97
2023-04-16T11:17:47.061Z,527.63
2023-04-16T11:20:21.943Z,533.28
2023-04-16T11:22:49.789Z,535.53
2023-04-16T11:25:24.405Z,520.03
2023-04-16T11:27:52.185Z,521.63
2023-04-16T11:30:27.693Z,553.85
2023-04-16T11:32:54.581Z,528.55
2023-04-16T11:35:21.469Z,530.63
2023-04-16T11:37:51.031Z,557.38
2023-04-16T11:40:17.696Z,554.97
2023-04-16T11:42:44.683Z,554.00
2023-04-16T11:45:12.411Z,549.13
2023-04-16T11:47:55.120Z,541.60
2023-04-16T11:50:27.269Z,512.50
2023-04-16T11:52:56.782Z,552.17
2023-04-16T11:55:24.447Z,551.17
2023-04-16T11:57:52.608Z,551.72
2023-04-16T12:00:21.105Z,550.90
2023-04-16T12:02:52.904Z,542.50
2023-04-16T12:05:34.662Z,544.28
2023-04-16T12:08:04.017Z,534.47
2023-04-16T12:10:36.825Z,526.58
2023-04-16T12:13:14.680Z,515.30
2023-04-16T12:15:49.067Z,558.95
2023-04-16T12:18:20.155Z,539.83
2023-04-16T12:20:47.534Z,547.35
2023-04-16T12:23:34.257Z,549.03
2023-04-16T12:26:10.588Z,544.22
2023-04-16T12:28:39.248Z,544.42
2023-04-16T12:31:06.273Z,529.22
2023-04-16T12:33:33.113Z,531.15
2023-04-16T12:36:00.091Z,526.10
2023-04-16T12:38:27.621Z,546.97
2023-04-16T12:40:56.971Z,555.67
2023-04-16T12:43:24.312Z,561.05
2023-04-16T12:45:51.067Z,519.42
2023-04-16T12:48:17.808Z,494.73
2023-04-16T12:50:44.712Z,555.28
2023-04-16T12:53:11.822Z,577.20
2023-04-16T12:55:38.594Z,535.53
2023-04-16T12:58:05.379Z,537.83
2023-04-16T13:00:32.193Z,528.38
2023-04-16T13:02:59.110Z,516.85
2023-04-16T13:05:26.399Z,523.80
2023-04-16T13:07:53.819Z,521.58
2023-04-16T13:10:22.012Z,539.38
2023-04-16T13:12:48.951Z,537.17
2023-04-16T13:15:15.850Z,531.40
2023-04-16T13:17:42.570Z,537.03
2023-04-16T13:20:09.977Z,534.40
2023-04-16T13:22:36.802Z,539.92
2023-04-16T13:25:03.743Z,542.55
2023-04-16T13:27:32.052Z,536.63
2023-04-16T13:29:58.724Z,546.53
2023-04-16T13:32:25.433Z,527.38
2023-04-16T13:34:52.176Z,528.25
2023-04-16T13:37:18.872Z,529.88
2023-04-16T13:39:47.278Z,530.25
2023-04-16T13:42:13.992Z,529.33
2023-04-16T13:44:41.028Z,529.47
2023-04-16T13:47:08.012Z,538.35
2023-04-16T13:49:35.961Z,540.70
2023-04-16T13:52:03.238Z,536.90
2023-04-16T13:54:29.966Z,538.65
2023-04-16T13:56:56.955Z,533.15
2023-04-16T13:59:23.716Z,557.63
2023-04-16T14:01:51.040Z,554.65
2023-04-16T14:04:17.875Z,550.05
2023-04-16T14:06:44.646Z,525.38
2023-04-16T14:09:11.471Z,553.90
2023-04-16T14:11:38.271Z,552.88
2023-04-16T14:14:05.059Z,550.75
2023-04-16T14:16:31.783Z,546.47
2023-04-16T14:18:58.479Z,545.55
2023-04-16T14:21:25.240Z,528.92
2023-04-16T14:23:51.947Z,534.95
2023-04-16T14:26:18.655Z,560.35
2023-04-16T14:28:45.395Z,565.47
2023-04-16T14:31:12.140Z,564.45
2023-04-16T14:33:38.980Z,561.70
2023-04-16T14:36:06.214Z,559.92
2023-04-16T14:38:33.010Z,564.60
2023-04-16T14:41:00.510Z,560.78
2023-04-16T14:43:27.325Z,539.47
2023-04-16T14:45:54.030Z,543.17
2023-04-16T14:48:21.937Z,536.67
2023-04-16T14:50:48.758Z,536.67
2023-04-16T14:53:15.501Z,371.80
2023-04-16T14:55:42.295Z,523.22
2023-04-16T14:58:09.011Z,527.90
2023-04-16T15:00:35.734Z,531.47
2023-04-16T15:03:02.642Z,538.38
2023-04-16T15:05:31.426Z,542.10
2023-04-16T15:07:58.193Z,555.97
2023-04-16T15:10:24.919Z,565.22
2023-04-16T15:12:51.577Z,564.88
2023-04-16T15:15:18.335Z,551.63
2023-04-16T15:17:45.681Z,549.25
2023-04-16T15:20:13.361Z,546.83
2023-04-16T15:22:40.582Z,548.10
2023-04-16T15:25:07.818Z,550.58
2023-04-16T15:27:34.590Z,545.97
2023-04-16T15:30:01.326Z,546.15
2023-04-16T15:32:28.055Z,543.78
2023-04-16T15:34:54.741Z,548.13
2023-04-16T15:37:21.395Z,549.50
2023-04-16T15:39:48.399Z,547.28
2023-04-16T15:42:15.639Z,553.45
2023-04-16T15:44:42.451Z,545.95
2023-04-16T15:47:09.271Z,545.10
2023-04-16T15:49:36.364Z,543.28
2023-04-16T15:52:03.313Z,541.55
2023-04-16T15:54:31.706Z,541.88
2023-04-16T15:56:58.754Z,546.08
2023-04-16T15:59:26.615Z,544.65
2023-04-16T16:01:53.475Z,541.15
2023-04-16T16:04:22.753Z,544.13
2023-04-16T16:06:50.298Z,549.80
2023-04-16T16:09:17.108Z,545.28
2023-04-16T16:11:43.791Z,549.78
2023-04-16T16:14:10.859Z,546.50
2023-04-16T16:16:37.898Z,553.38
2023-04-16T16:19:04.733Z,548.33
2023-04-16T16:21:32.508Z,552.03
2023-04-16T16:23:59.278Z,555.72
2023-04-16T16:26:25.937Z,553.63
2023-04-16T16:28:52.627Z,549.13
2023-04-16T16:31:19.516Z,553.92
2023-04-16T16:33:46.310Z,549.42
2023-04-16T16:36:13.241Z,550.45
2023-04-16T16:38:40.992Z,547.55
2023-04-16T16:41:07.846Z,543.13
2023-04-16T16:43:36.625Z,544.38
2023-04-16T16:46:03.497Z,544.13
2023-04-16T16:48:30.379Z,543.90
2023-04-16T16:50:57.196Z,538.45
2023-04-16T16:53:23.899Z,541.20
2023-04-16T16:55:50.624Z,535.95
2023-04-16T16:58:17.317Z,532.47
2023-04-16T17:00:44.136Z,528.30
2023-04-16T17:03:11.316Z,527.58
2023-04-16T17:05:38.303Z,526.65
2023-04-16T17:08:06.504Z,524.58
2023-04-16T17:10:33.285Z,525.13
2023-04-16T17:13:00.114Z,522.00
2023-04-16T17:15:26.926Z,523.25
2023-04-16T17:17:53.887Z,520.58
2023-04-16T17:20:20.841Z,516.97
2023-04-16T17:22:47.567Z,521.28
2023-04-16T17:25:14.296Z,519.85
2023-04-16T17:27:41.315Z,522.72
2023-04-16T17:30:08.487Z,523.75
2023-04-16T17:32:35.236Z,517.75
2023-04-16T17:35:04.099Z,517.63
2023-04-16T17:37:31.089Z,516.00
2023-04-16T17:39:57.842Z,515.20
2023-04-16T17:42:24.696Z,515.05
2023-04-16T17:44:51.851Z,516.10
2023-04-16T17:47:18.601Z,512.55
2023-04-16T17:49:45.373Z,511.70
2023-04-16T17:52:12.105Z,511.10
2023-04-16T17:54:38.845Z,511.02
2023-04-16T17:57:05.806Z,507.60
2023-04-16T17:59:33.299Z,503.27
2023-04-16T18:02:00.282Z,505.13
2023-04-16T18:04:27.416Z,502.90
2023-04-16T18:06:54.259Z,502.88
2023-04-16T18:09:21.241Z,496.15
2023-04-16T18:11:48.099Z,37.80
2023-04-16T18:14:19.630Z,17.10
2023-04-16T18:16:47.403Z,13.40
2023-04-16T18:19:14.331Z,300.27
2023-04-16T18:21:41.125Z,14.05
2023-04-16T18:24:08.272Z,15.95
2023-04-16T18:26:36.206Z,357.05
2023-04-16T18:29:03.972Z,14.93
2023-04-16T18:31:30.909Z,25.42
2023-04-16T18:33:58.554Z,20.40
2023-04-16T18:36:26.799Z,241.68
2023-04-16T18:39:01.621Z,444.60
2023-04-16T18:41:41.643Z,13.45
2023-04-16T18:44:10.617Z,12.02
2023-04-16T18:46:37.339Z,12.57
2023-04-16T18:49:04.092Z,21.48
2023-04-16T18:51:30.744Z,376.67
2023-04-16T18:53:57.535Z,10.07
2023-04-16T18:56:24.264Z,11.85
2023-04-16T18:58:51.016Z,9.63
2023-04-16T19:01:18.249Z,10.30
2023-04-16T19:03:45.442Z,11.02
2023-04-16T19:06:12.153Z,8.93
2023-04-16T19:08:38.830Z,11.85
2023-04-16T19:11:05.701Z,10.57
2023-04-16T19:13:32.405Z,10.80
2023-04-16T19:16:00.837Z,20.17
2023-04-16T19:18:27.807Z,15.90
2023-04-16T19:21:01.263Z,6.55
2023-04-16T19:23:28.612Z,12.38
2023-04-16T19:25:58.764Z,12.52
2023-04-16T19:28:25.670Z,15.75
2023-04-16T19:30:53.499Z,12.70
2023-04-16T19:33:20.309Z,10.65
2023-04-16T19:35:47.382Z,13.32
2023-04-16T19:38:14.085Z,26.02
2023-04-16T19:40:43.481Z,13.32
2023-04-16T19:43:10.294Z,16.10
2023-04-16T19:45:42.943Z,11.88
2023-04-16T19:48:09.773Z,11.75
2023-04-16T19:50:39.439Z,14.65
2023-04-16T19:53:06.295Z,12.07
2023-04-16T19:55:32.957Z,12.55
2023-04-16T19:58:05.574Z,12.32
2023-04-16T20:00:33.625Z,15.23
2023-04-16T20:03:00.554Z,19.80
2023-04-16T20:05:27.979Z,7.55
2023-04-16T20:07:55.332Z,10.35
2023-04-16T20:10:22.657Z,7.00
2023-04-16T20:12:50.658Z,16.52
2023-04-16T20:15:18.264Z,7.53
2023-04-16T20:17:45.320Z,9.50
2023-04-16T20:20:12.345Z,10.32
2023-04-16T20:22:39.962Z,6.78
2023-04-16T20:25:07.477Z,5.80
2023-04-16T20:27:35.817Z,15.10
2023-04-16T20:30:03.586Z,9.15
2023-04-16T20:32:30.264Z,7.47
2023-04-16T20:34:57.186Z,9.90
2023-04-16T20:37:23.855Z,9.85
2023-04-16T20:39:58.207Z,12.30
2023-04-16T20:42:26.254Z,10.45
2023-04-16T20:44:56.373Z,9.57
2023-04-16T20:47:23.634Z,7.10
2023-04-16T20:49:50.489Z,6.95
2023-04-16T20:52:17.369Z,8.05
2023-04-16T20:54:44.379Z,9.40
2023-04-16T20:57:11.810Z,8.63
2023-04-16T20:59:38.670Z,8.45
2023-04-16T21:02:05.829Z,9.57
2023-04-16T21:04:32.786Z,8.68
2023-04-16T21:07:03.084Z,8.85
2023-04-16T21:09:30.839Z,7.30
2023-04-16T21:11:57.690Z,8.63
2023-04-16T21:14:24.380Z,12.07
2023-04-16T21:16:51.084Z,19.52
2023-04-16T21:19:17.776Z,11.70
2023-04-16T21:21:44.438Z,9.02
2023-04-16T21:24:11.103Z,13.55
2023-04-16T21:26:37.745Z,12.93
2023-04-16T21:29:04.444Z,8.57
2023-04-16T21:31:31.096Z,12.10
2023-04-16T21:33:57.774Z,12.48
2023-04-16T21:36:26.502Z,13.68
2023-04-16T21:38:53.263Z,7.65
2023-04-16T21:41:19.910Z,11.50
2023-04-16T21:43:46.572Z,9.23
2023-04-16T21:46:13.235Z,9.75
2023-04-16T21:48:39.943Z,9.25
2023-04-16T21:51:07.056Z,9.07
2023-04-16T21:53:34.294Z,8.15
2023-04-16T21:56:01.043Z,10.88
2023-04-16T21:58:27.792Z,8.95
2023-04-16T22:00:54.541Z,9.32
2023-04-16T22:03:27.712Z,12.38
2023-04-16T22:06:01.400Z,17.67
2023-04-16T22:08:31.632Z,10.70
2023-04-16T22:11:00.173Z,11.57
2023-04-16T22:13:28.066Z,9.90
2023-04-16T22:15:55.544Z,12.15
2023-04-16T22:18:25.377Z,14.70
2023-04-16T22:20:55.033Z,21.17
2023-04-16T22:23:25.241Z,18.85
2023-04-16T22:25:54.704Z,10.73
2023-04-16T22:28:21.673Z,12.88
2023-04-16T22:30:48.907Z,12.77
2023-04-16T22:33:15.847Z,11.73
2023-04-16T22:35:42.571Z,11.45
2023-04-16T22:38:10.045Z,12.02
2023-04-16T22:40:36.942Z,23.13
2023-04-16T22:43:03.817Z,9.32
2023-04-16T22:45:30.468Z,11.98
2023-04-16T22:47:57.163Z,18.45
2023-04-16T22:50:23.898Z,10.93
2023-04-16T22:52:50.604Z,11.48
2023-04-16T22:55:17.308Z,10.43
2023-04-16T22:57:44.007Z,11.57
2023-04-16T23:00:15.749Z,10.18
2023-04-16T23:02:43.062Z,12.40
2023-04-16T23:05:10.322Z,9.98
2023-04-16T23:07:37.103Z,8.90
2023-04-16T23:10:04.121Z,9.82
2023-04-16T23:12:30.849Z,8.90
2023-04-16T23:14:58.220Z,9.35
2023-04-16T23:17:25.044Z,9.65
2023-04-16T23:19:51.805Z,10.20
2023-04-16T23:22:18.448Z,19.75
2023-04-16T23:24:45.680Z,18.92
2023-04-16T23:27:12.384Z,5.28
2023-04-16T23:29:39.068Z,9.93
2023-04-16T23:32:05.726Z,7.35
2023-04-16T23:34:32.421Z,9.68
2023-04-16T23:36:59.095Z,9.70
2023-04-16T23:39:26.146Z,8.05
2023-04-16T23:41:52.814Z,9.10
2023-04-16T23:44:19.509Z,13.70
2023-04-16T23:46:46.193Z,9.82
2023-04-16T23:49:13.038Z,11.40
2023-04-16T23:51:40.074Z,8.98
2023-04-16T23:54:06.881Z,9.95
2023-04-16T23:56:33.575Z,9.52
2023-04-16T23:59:00.238Z,10.90
